Prince Albert Glass Field
CYPA : rendu visible

Aérodrome :











RETROUVEZ-NOUS SUR...

 
LOGIN :

S'inscrire | Disclaimer

   EN    FR    IT 

 









Légende :    VFR   VFR Marginal   IFR   IFR Intensif   IFR Très Intensif
Visi : 
Plafond : 
>= 8 km
>= 3000ft
5 à 8 km
1000 à 3000 ft
1500m à 5 km
500 à 1000 ft
800 à 1500m
200 à 500 ft
< 800m
< 200 ft
Symboles :   Orages  Brouillard  Fortes neiges  Fortes précipitations  Vent > 20 kt






- Altitude de l'aérodrome : 1405 ft
- Code IATA : YPA


CYPA - Prince Albert Glass Field

DERNIER METAR :
  • 190300Z 24004KT 15SM SKC M23/M28 A3054 RMK SLP398

METARs EXPIRÉS :
  • 190200Z 25004KT 15SM SKC M22/M28 A3053 RMK SLP396
  • 190100Z 28007KT 15SM SKC M21/M27 A3052 RMK SLP390

TAF TAF CYPA
Valide du 19 à 01h jusqu'au 19 à 13h UTC


190038Z 1901/1913 29008KT P6SM SKC
BECMG 1903/1905 VRB03KT RMK NXT FCST BY 190700Z



MET'MAP, la Météo Aéronautique d'un coup d'oeil ! - Copyright ORBIFLY Décembre 2007 - Disclaimer

ORBIFLY MET'MAP TEAM :

Programmation & Développement : Alexandra Zaïnal
Sur une idée originale de : Baudouin d'Aumeries
Assistance à la programmation : Marc-Olivier Méhu
Soutien technique & logistique : Manuel Goepfert

Contact : metmap@orbifly.com




SOURCES & CREDITS :

   NOAA       Earth
Advisory